createdAt,value
2023-01-12T00:02:07.477Z,82.77
2023-01-12T00:04:35.947Z,82.42
2023-01-12T00:07:03.951Z,82.23
2023-01-12T00:09:31.926Z,81.67
2023-01-12T00:12:01.211Z,82.52
2023-01-12T00:14:29.305Z,82.19
2023-01-12T00:16:57.800Z,81.49
2023-01-12T00:19:25.664Z,81.72
2023-01-12T00:21:59.542Z,81.38
2023-01-12T00:24:29.108Z,82.06
2023-01-12T00:26:58.296Z,83.22
2023-01-12T00:29:28.733Z,82.75
2023-01-12T00:31:57.908Z,82.65
2023-01-12T00:34:29.233Z,82.78
2023-01-12T00:36:57.469Z,83.05
2023-01-12T00:39:25.353Z,84.12
2023-01-12T00:42:10.971Z,83.78
2023-01-12T00:44:57.570Z,83.89
2023-01-12T00:47:25.428Z,83.87
2023-01-12T00:49:53.805Z,83.59
2023-01-12T00:52:30.789Z,83.39
2023-01-12T00:55:00.160Z,84.42
2023-01-12T01:03:03.741Z,84.15
2023-01-12T01:05:31.705Z,84.96
2023-01-12T01:07:59.532Z,84.23
2023-01-12T01:10:27.355Z,85.15
2023-01-12T01:12:55.146Z,84.92
2023-01-12T01:15:24.374Z,84.38
2023-01-12T01:17:52.273Z,83.93
2023-01-12T01:20:20.273Z,84.13
2023-01-12T01:22:48.210Z,84.42
2023-01-12T01:25:16.066Z,84.35
2023-01-12T01:27:44.119Z,83.92
2023-01-12T01:30:12.645Z,84.35
2023-01-12T01:32:41.817Z,84.85
2023-01-12T01:35:10.452Z,84.92
2023-01-12T01:37:38.293Z,85.13
2023-01-12T01:40:07.064Z,84.84
2023-01-12T01:42:35.181Z,84.67
2023-01-12T01:45:05.773Z,85.33
2023-01-12T01:53:22.032Z,85.72
2023-01-12T01:55:52.343Z,85.73
2023-01-12T01:58:24.272Z,86.33
2023-01-12T02:00:52.267Z,86.40
2023-01-12T02:03:22.192Z,85.97
2023-01-12T02:05:51.940Z,86.70
2023-01-12T02:08:27.075Z,85.97
2023-01-12T02:10:56.821Z,86.28
2023-01-12T02:13:46.597Z,85.36
2023-01-12T02:16:24.175Z,85.61
2023-01-12T02:19:03.709Z,84.96
2023-01-12T02:22:12.439Z,85.40
2023-01-12T02:25:37.222Z,85.38
2023-01-12T02:28:25.997Z,85.96
2023-01-12T02:31:36.965Z,86.06
2023-01-12T02:34:14.689Z,85.82
2023-01-12T02:36:51.528Z,85.70
2023-01-12T02:39:23.987Z,86.03
2023-01-12T02:42:18.122Z,85.55
2023-01-12T02:44:53.086Z,85.60
2023-01-12T02:47:29.599Z,85.55
2023-01-12T02:50:03.391Z,86.08
2023-01-12T02:52:34.591Z,85.59
2023-01-12T02:55:04.645Z,84.90
2023-01-12T02:57:35.354Z,85.26
2023-01-12T03:00:06.749Z,84.91
2023-01-12T03:02:36.861Z,85.92
2023-01-12T03:05:06.006Z,85.21
2023-01-12T03:07:46.937Z,85.64
2023-01-12T03:10:30.608Z,85.63
2023-01-12T03:13:00.640Z,85.54
2023-01-12T03:15:29.923Z,85.05
2023-01-12T03:18:01.513Z,85.10
2023-01-12T03:20:33.181Z,85.13
2023-01-12T03:23:05.777Z,84.43
2023-01-12T03:25:35.665Z,85.54
2023-01-12T03:28:07.184Z,86.00
2023-01-12T03:30:39.811Z,86.55
2023-01-12T03:33:10.185Z,87.01
2023-01-12T03:35:44.825Z,87.20
2023-01-12T03:38:20.274Z,87.59
2023-01-12T03:40:54.162Z,88.52
2023-01-12T03:43:29.212Z,88.33
2023-01-12T03:46:02.422Z,87.20
2023-01-12T03:48:37.712Z,87.48
2023-01-12T03:51:10.663Z,88.87
2023-01-12T03:53:41.008Z,89.42
2023-01-12T03:56:12.036Z,89.36
2023-01-12T03:58:40.082Z,90.04
2023-01-12T04:01:08.082Z,88.95
2023-01-12T04:03:37.344Z,88.98
2023-01-12T04:06:05.792Z,88.98
2023-01-12T04:08:33.609Z,89.06
2023-01-12T04:11:22.859Z,90.57
2023-01-12T04:13:50.657Z,91.80
2023-01-12T04:16:19.002Z,90.79
2023-01-12T04:18:48.275Z,90.14
2023-01-12T04:21:33.626Z,91.05
2023-01-12T04:24:01.606Z,89.67
2023-01-12T04:26:29.401Z,90.05
2023-01-12T04:28:57.222Z,89.72
2023-01-12T04:31:25.045Z,89.54
2023-01-12T04:33:54.357Z,90.60
2023-01-12T04:36:22.280Z,88.74
2023-01-12T04:38:50.099Z,88.69
2023-01-12T04:41:17.849Z,88.31
2023-01-12T04:43:47.114Z,88.29
2023-01-12T04:46:14.920Z,88.38
2023-01-12T04:48:45.500Z,88.26
2023-01-12T04:51:15.113Z,87.55
2023-01-12T04:53:42.997Z,87.21
2023-01-12T04:56:11.054Z,86.95
2023-01-12T04:58:38.902Z,87.92
2023-01-12T05:01:11.487Z,86.21
2023-01-12T05:03:39.693Z,87.54
2023-01-12T05:06:08.484Z,87.12
2023-01-12T05:08:56.076Z,87.69
2023-01-12T05:11:28.795Z,87.76
2023-01-12T05:13:57.160Z,88.65
2023-01-12T05:16:25.597Z,89.48
2023-01-12T05:18:54.303Z,90.31
2023-01-12T05:21:24.375Z,91.08
2023-01-12T05:23:53.914Z,91.01
2023-01-12T05:26:21.965Z,90.91
2023-01-12T05:28:50.168Z,91.64
2023-01-12T05:31:19.419Z,91.58
2023-01-12T05:33:50.078Z,92.19
2023-01-12T05:36:18.162Z,93.11
2023-01-12T05:38:45.952Z,94.29
2023-01-12T05:41:15.400Z,94.25
2023-01-12T05:43:52.152Z,95.40
2023-01-12T05:46:22.133Z,95.57
2023-01-12T05:48:51.305Z,96.18
2023-01-12T05:51:19.740Z,97.10
2023-01-12T05:53:47.836Z,96.64
2023-01-12T05:56:19.979Z,98.28
2023-01-12T05:58:52.557Z,97.41
2023-01-12T06:01:21.438Z,97.16
2023-01-12T06:03:50.664Z,98.55
2023-01-12T06:06:19.524Z,100.00
2023-01-12T06:08:47.550Z,100.00
2023-01-12T06:11:29.928Z,100.00
2023-01-12T06:13:59.157Z,100.00
2023-01-12T06:16:27.723Z,100.00
2023-01-12T06:18:56.475Z,100.00
2023-01-12T06:21:25.001Z,100.00
2023-01-12T06:23:53.170Z,100.00
2023-01-12T06:26:20.963Z,100.00
2023-01-12T06:28:49.143Z,100.00
2023-01-12T06:31:18.378Z,100.00
2023-01-12T06:33:46.389Z,100.00
2023-01-12T06:36:14.168Z,100.00
2023-01-12T06:38:43.269Z,100.00
2023-01-12T06:41:33.407Z,100.00
2023-01-12T06:44:01.448Z,100.00
2023-01-12T06:46:31.545Z,100.00
2023-01-12T06:48:59.736Z,100.00
2023-01-12T06:51:27.673Z,100.00
2023-01-12T06:53:55.610Z,100.00
2023-01-12T06:56:23.624Z,99.91
2023-01-12T06:58:51.462Z,99.41
2023-01-12T07:01:19.498Z,100.00
2023-01-12T07:03:49.165Z,100.00
2023-01-12T07:06:16.955Z,99.68
2023-01-12T07:08:44.751Z,100.00
2023-01-12T07:11:14.999Z,100.00
2023-01-12T07:13:42.832Z,99.48
2023-01-12T07:16:10.822Z,99.60
2023-01-12T07:18:38.720Z,100.00
2023-01-12T07:21:10.053Z,100.00
2023-01-12T07:23:38.495Z,100.00
2023-01-12T07:26:06.443Z,100.00
2023-01-12T07:28:34.442Z,100.00
2023-01-12T07:31:03.377Z,100.00
2023-01-12T07:33:31.705Z,100.00
2023-01-12T07:36:00.227Z,100.00
2023-01-12T07:38:30.663Z,100.00
2023-01-12T07:41:00.104Z,100.00
2023-01-12T07:43:28.349Z,100.00
2023-01-12T07:45:57.682Z,100.00
2023-01-12T07:48:26.726Z,100.00
2023-01-12T07:50:54.808Z,100.00
2023-01-12T07:53:22.696Z,100.00
2023-01-12T07:55:51.950Z,100.00
2023-01-12T07:58:19.797Z,100.00
2023-01-12T08:00:47.601Z,100.00
2023-01-12T08:03:15.432Z,100.00
2023-01-12T08:05:43.356Z,100.00
2023-01-12T08:08:11.219Z,100.00
2023-01-12T08:10:39.296Z,100.00
2023-01-12T08:13:08.491Z,100.00
2023-01-12T08:15:40.653Z,100.00
2023-01-12T08:18:15.310Z,100.00
2023-01-12T08:20:43.781Z,100.00
2023-01-12T08:23:16.706Z,100.00
2023-01-12T08:25:47.869Z,100.00
2023-01-12T08:28:20.494Z,100.00
2023-01-12T08:30:50.082Z,100.00
2023-01-12T08:33:18.285Z,100.00
2023-01-12T08:35:48.070Z,100.00
2023-01-12T08:38:16.238Z,100.00
2023-01-12T08:41:01.265Z,100.00
2023-01-12T08:43:48.319Z,100.00
2023-01-12T08:46:16.548Z,100.00
2023-01-12T08:48:44.377Z,100.00
2023-01-12T08:51:12.455Z,100.00
2023-01-12T08:53:40.253Z,100.00
2023-01-12T08:56:09.239Z,100.00
2023-01-12T08:58:38.527Z,100.00
2023-01-12T09:01:10.413Z,100.00
2023-01-12T09:03:38.792Z,100.00
2023-01-12T09:06:11.419Z,100.00
2023-01-12T09:08:39.225Z,100.00
2023-01-12T09:11:07.447Z,100.00
2023-01-12T09:13:35.291Z,100.00
2023-01-12T09:16:12.549Z,100.00
2023-01-12T09:18:41.294Z,100.00
2023-01-12T09:21:11.929Z,100.00
2023-01-12T09:23:40.423Z,100.00
2023-01-12T09:26:10.577Z,100.00
2023-01-12T09:28:39.033Z,100.00
2023-01-12T09:31:10.141Z,100.00
2023-01-12T09:33:39.276Z,100.00
2023-01-12T09:36:09.308Z,100.00
2023-01-12T09:38:38.335Z,100.00
2023-01-12T09:41:12.345Z,100.00
2023-01-12T09:47:01.945Z,100.00
2023-01-12T09:49:33.970Z,100.00
2023-01-12T09:52:12.499Z,100.00
2023-01-12T09:54:40.724Z,100.00
2023-01-12T09:57:28.843Z,100.00
2023-01-12T10:00:03.912Z,100.00
2023-01-12T10:02:46.094Z,100.00
2023-01-12T10:05:23.787Z,100.00
2023-01-12T10:07:56.971Z,100.00
2023-01-12T10:10:24.840Z,100.00
2023-01-12T10:12:59.916Z,100.00
2023-01-12T10:15:39.085Z,100.00
2023-01-12T10:18:13.532Z,100.00
2023-01-12T10:20:44.349Z,100.00
2023-01-12T10:23:16.866Z,100.00
2023-01-12T10:25:48.527Z,100.00
2023-01-12T10:28:19.869Z,100.00
2023-01-12T10:30:47.708Z,100.00
2023-01-12T10:33:19.322Z,100.00
2023-01-12T10:35:56.945Z,100.00
2023-01-12T10:38:28.317Z,100.00
2023-01-12T10:41:17.755Z,100.00
2023-01-12T10:43:47.365Z,100.00
2023-01-12T10:46:17.808Z,100.00
2023-01-12T10:48:48.608Z,100.00
2023-01-12T10:51:26.206Z,100.00
2023-01-12T10:53:57.830Z,100.00
2023-01-12T10:56:35.233Z,100.00
2023-01-12T10:59:06.035Z,100.00
2023-01-12T11:01:44.865Z,100.00
2023-01-12T11:04:16.805Z,100.00
2023-01-12T11:06:46.858Z,100.00
2023-01-12T11:09:25.756Z,100.00
2023-01-12T11:11:55.304Z,100.00
2023-01-12T11:14:28.827Z,100.00
2023-01-12T11:17:05.301Z,100.00
2023-01-12T11:19:38.366Z,98.76
2023-01-12T11:22:11.132Z,99.56
2023-01-12T11:24:44.736Z,100.00
2023-01-12T11:27:21.264Z,97.40
2023-01-12T11:29:58.099Z,95.71
2023-01-12T11:32:34.806Z,97.61
2023-01-12T11:35:18.899Z,97.94
2023-01-12T11:37:47.482Z,96.11
2023-01-12T11:40:27.517Z,96.98
2023-01-12T11:43:15.636Z,96.17
2023-01-12T11:45:50.203Z,96.16
2023-01-12T11:48:24.013Z,95.55
2023-01-12T11:50:54.715Z,94.82
2023-01-12T11:53:25.606Z,94.51
2023-01-12T11:56:15.086Z,95.64
2023-01-12T11:58:53.255Z,96.97
2023-01-12T12:01:29.203Z,95.02
2023-01-12T12:04:04.105Z,95.63
2023-01-12T12:07:06.468Z,93.87
2023-01-12T12:09:51.385Z,95.95
2023-01-12T12:12:30.840Z,96.21
2023-01-12T12:15:13.305Z,96.97
2023-01-12T12:17:48.917Z,96.49
2023-01-12T12:20:21.702Z,97.95
2023-01-12T12:23:03.869Z,95.93
2023-01-12T12:25:44.711Z,95.56
2023-01-12T12:28:41.728Z,96.76
2023-01-12T12:31:26.125Z,97.83
2023-01-12T12:34:11.259Z,96.72
2023-01-12T12:36:48.373Z,97.60
2023-01-12T12:39:36.410Z,97.21
2023-01-12T12:42:38.782Z,95.53
2023-01-12T12:45:21.587Z,97.22
2023-01-12T12:48:04.788Z,98.56
2023-01-12T12:50:37.778Z,99.76
2023-01-12T12:53:16.064Z,98.34
2023-01-12T12:55:46.243Z,97.33
2023-01-12T12:58:45.840Z,99.13
2023-01-12T13:01:55.305Z,100.00
2023-01-12T13:04:57.629Z,100.00
2023-01-12T13:07:27.453Z,99.18
2023-01-12T13:10:10.269Z,99.81
2023-01-12T13:12:41.728Z,100.00
2023-01-12T13:15:19.342Z,99.82
2023-01-12T13:17:49.695Z,100.00
2023-01-12T13:20:38.826Z,100.00
2023-01-12T13:23:39.800Z,100.00
2023-01-12T13:26:25.818Z,100.00
2023-01-12T13:29:26.929Z,100.00
2023-01-12T13:31:59.494Z,100.00
2023-01-12T13:34:31.261Z,100.00
2023-01-12T13:37:12.363Z,100.00
2023-01-12T13:39:45.502Z,99.72
2023-01-12T13:42:35.364Z,100.00
2023-01-12T13:45:03.837Z,98.91
2023-01-12T13:47:33.152Z,98.30
2023-01-12T13:50:03.762Z,98.69
2023-01-12T13:52:33.978Z,98.56
2023-01-12T13:55:02.261Z,99.99
2023-01-12T13:57:32.235Z,97.80
2023-01-12T14:00:04.582Z,96.88
2023-01-12T14:02:41.568Z,97.06
2023-01-12T14:05:26.981Z,96.52
2023-01-12T14:08:02.680Z,94.31
2023-01-12T14:10:37.018Z,94.46
2023-01-12T14:13:25.021Z,93.98
2023-01-12T14:16:19.236Z,95.25
2023-01-12T14:18:50.749Z,94.58
2023-01-12T14:21:24.542Z,94.06
2023-01-12T14:23:52.739Z,95.56
2023-01-12T14:26:23.890Z,96.35
2023-01-12T14:28:53.353Z,97.19
2023-01-12T14:31:27.970Z,97.44
2023-01-12T14:33:59.627Z,98.23
2023-01-12T14:36:30.267Z,97.56
2023-01-12T14:39:00.324Z,98.19
2023-01-12T14:41:48.455Z,98.74
2023-01-12T14:44:38.610Z,98.57
2023-01-12T14:47:06.735Z,98.97
2023-01-12T14:49:37.767Z,98.21
2023-01-12T14:52:25.953Z,97.42
2023-01-12T14:54:53.887Z,96.32
2023-01-12T14:57:26.704Z,96.04
2023-01-12T14:59:55.136Z,95.32
2023-01-12T15:02:32.530Z,94.21
2023-01-12T15:05:04.616Z,93.73
2023-01-12T15:07:36.396Z,93.16
2023-01-12T15:10:29.821Z,93.18
2023-01-12T15:12:58.737Z,90.42
2023-01-12T15:15:48.928Z,88.95
2023-01-12T15:18:34.750Z,90.22
2023-01-12T15:21:21.891Z,89.95
2023-01-12T15:24:07.506Z,89.41
2023-01-12T15:26:35.582Z,90.87
2023-01-12T15:29:03.437Z,90.22
2023-01-12T15:31:34.326Z,89.37
2023-01-12T15:34:02.791Z,89.59
2023-01-12T15:36:32.195Z,89.04
2023-01-12T15:39:00.009Z,89.38
2023-01-12T15:41:45.113Z,89.61
2023-01-12T15:44:14.379Z,90.66
2023-01-12T15:46:42.620Z,89.10
2023-01-12T15:49:11.451Z,88.68
2023-01-12T15:51:42.037Z,88.31
2023-01-12T15:54:12.739Z,88.70
2023-01-12T15:56:40.990Z,89.43
2023-01-12T15:59:08.773Z,89.46
2023-01-12T16:01:42.538Z,89.21
2023-01-12T16:04:41.505Z,89.08
2023-01-12T16:07:06.164Z,88.26
2023-01-12T16:09:34.003Z,88.08
2023-01-12T16:12:01.989Z,88.91
2023-01-12T16:14:30.105Z,89.27
2023-01-12T16:16:57.904Z,88.93
2023-01-12T16:19:26.325Z,89.37
2023-01-12T16:21:55.771Z,90.41
2023-01-12T16:24:26.704Z,89.95
2023-01-12T16:26:54.779Z,88.69
2023-01-12T16:29:23.934Z,88.97
2023-01-12T16:31:52.001Z,89.23
2023-01-12T16:34:22.644Z,89.57
2023-01-12T16:36:50.818Z,89.34
2023-01-12T16:39:18.709Z,89.47
2023-01-12T16:41:48.214Z,89.96
2023-01-12T16:44:16.323Z,88.82
2023-01-12T16:46:44.117Z,89.10
2023-01-12T16:49:12.037Z,89.19
2023-01-12T16:51:39.903Z,88.92
2023-01-12T16:54:07.751Z,89.56
2023-01-12T16:56:35.593Z,89.45
2023-01-12T16:59:04.774Z,89.76
2023-01-12T17:01:33.199Z,89.78
2023-01-12T17:04:02.429Z,89.70
2023-01-12T17:06:31.288Z,88.90
2023-01-12T17:09:03.104Z,88.70
2023-01-12T17:11:31.511Z,88.22
2023-01-12T17:13:59.763Z,88.50
2023-01-12T17:16:29.372Z,87.83
2023-01-12T17:18:57.324Z,87.51
2023-01-12T17:21:25.559Z,87.70
2023-01-12T17:23:53.699Z,87.83
2023-01-12T17:26:21.778Z,87.48
2023-01-12T17:28:49.915Z,87.68
2023-01-12T17:31:20.425Z,86.92
2023-01-12T17:33:52.218Z,87.51
2023-01-12T17:36:20.090Z,87.15
2023-01-12T17:38:47.926Z,87.53
2023-01-12T17:41:31.216Z,87.13
2023-01-12T17:44:00.174Z,88.62
2023-01-12T17:46:28.098Z,87.64
2023-01-12T17:48:58.712Z,87.25
2023-01-12T17:51:51.275Z,88.03
2023-01-12T17:54:20.128Z,88.29
2023-01-12T17:56:48.024Z,88.17
2023-01-12T17:59:18.192Z,88.00
2023-01-12T18:01:47.290Z,88.33
2023-01-12T18:04:17.352Z,89.17
2023-01-12T18:06:46.196Z,88.16
2023-01-12T18:09:14.407Z,88.77
2023-01-12T18:11:42.403Z,89.29
2023-01-12T18:14:10.568Z,88.61
2023-01-12T18:16:38.397Z,90.52
2023-01-12T18:19:08.798Z,91.51
2023-01-12T18:21:38.029Z,91.48
2023-01-12T18:24:06.562Z,91.33
2023-01-12T18:26:35.932Z,91.77
2023-01-12T18:29:06.283Z,91.23
2023-01-12T18:31:37.711Z,90.27
2023-01-12T18:34:07.636Z,91.06
2023-01-12T18:36:39.276Z,91.42
2023-01-12T18:39:10.078Z,90.13
2023-01-12T18:41:55.683Z,90.09
2023-01-12T18:44:23.960Z,90.89
2023-01-12T18:47:09.169Z,89.82
2023-01-12T18:49:38.011Z,90.47
2023-01-12T18:52:25.490Z,89.75
2023-01-12T18:54:53.643Z,89.39
2023-01-12T18:57:24.018Z,89.63
2023-01-12T18:59:55.001Z,89.88
2023-01-12T19:02:23.417Z,89.39
2023-01-12T19:05:07.892Z,89.51
2023-01-12T19:07:51.319Z,89.74
2023-01-12T19:10:18.489Z,88.83
2023-01-12T19:12:46.516Z,89.67
2023-01-12T19:15:32.184Z,89.20
2023-01-12T19:18:00.406Z,89.24
2023-01-12T19:20:29.619Z,88.53
2023-01-12T19:23:16.417Z,89.51
2023-01-12T19:26:01.527Z,89.56
2023-01-12T19:28:36.325Z,89.33
2023-01-12T19:31:06.347Z,89.47
2023-01-12T19:33:34.538Z,89.15
2023-01-12T19:36:06.673Z,88.58
2023-01-12T19:38:36.928Z,88.61
2023-01-12T19:41:11.984Z,89.34
2023-01-12T19:43:41.680Z,88.40
2023-01-12T19:46:10.716Z,88.94
2023-01-12T19:48:38.592Z,88.93
2023-01-12T19:51:10.595Z,88.89
2023-01-12T19:53:40.863Z,87.67
2023-01-12T19:56:10.398Z,88.98
2023-01-12T19:58:38.281Z,88.92
2023-01-12T20:01:06.543Z,90.54
2023-01-12T20:03:34.824Z,89.98
2023-01-12T20:06:06.140Z,90.18
2023-01-12T20:08:34.156Z,90.24
2023-01-12T20:11:05.341Z,91.36
2023-01-12T20:13:33.794Z,91.95
2023-01-12T20:16:06.756Z,91.33
2023-01-12T20:18:34.714Z,91.08
2023-01-12T20:21:09.061Z,91.37
2023-01-12T20:23:36.884Z,88.67
2023-01-12T20:26:09.103Z,87.14
2023-01-12T20:28:36.975Z,88.01
2023-01-12T20:31:09.975Z,86.79
2023-01-12T20:33:37.859Z,86.44
2023-01-12T20:36:06.124Z,86.75
2023-01-12T20:38:33.942Z,86.62
2023-01-12T20:41:04.752Z,86.19
2023-01-12T20:43:34.043Z,86.12
2023-01-12T20:46:02.074Z,86.93
2023-01-12T20:48:29.930Z,85.39
2023-01-12T20:50:58.591Z,85.47
2023-01-12T20:53:31.244Z,84.52
2023-01-12T20:55:59.512Z,85.26
2023-01-12T20:58:27.383Z,84.83
2023-01-12T21:00:56.965Z,84.42
2023-01-12T21:03:24.970Z,84.55
2023-01-12T21:05:52.836Z,84.49
2023-01-12T21:08:20.697Z,84.86
2023-01-12T21:10:50.358Z,85.51
2023-01-12T21:13:18.532Z,84.57
2023-01-12T21:15:46.786Z,84.13
2023-01-12T21:18:15.955Z,84.58
2023-01-12T21:20:44.634Z,85.45
2023-01-12T21:23:12.459Z,85.37
2023-01-12T21:25:42.317Z,86.05
2023-01-12T21:28:10.437Z,85.17
2023-01-12T21:30:38.874Z,85.75
2023-01-12T21:33:07.318Z,86.03
2023-01-12T21:35:36.456Z,85.76
2023-01-12T21:38:04.559Z,85.86
2023-01-12T21:40:33.392Z,86.71
2023-01-12T21:43:09.162Z,86.34
2023-01-12T21:45:37.322Z,87.58
2023-01-12T21:48:05.883Z,87.86
2023-01-12T21:50:36.382Z,89.04
2023-01-12T21:53:05.571Z,90.03
2023-01-12T21:55:34.310Z,91.15
2023-01-12T21:58:03.011Z,92.94
2023-01-12T22:00:31.263Z,92.62
2023-01-12T22:02:59.427Z,92.96
2023-01-12T22:05:27.832Z,94.18
2023-01-12T22:07:57.784Z,94.07
2023-01-12T22:10:30.526Z,93.90
2023-01-12T22:13:00.629Z,93.92
2023-01-12T22:15:30.258Z,93.38
2023-01-12T22:17:58.446Z,94.23
2023-01-12T22:20:27.727Z,94.57
2023-01-12T22:22:57.032Z,93.87
2023-01-12T22:25:25.011Z,93.62
2023-01-12T22:27:53.138Z,93.09
2023-01-12T22:30:24.032Z,93.99
2023-01-12T22:32:54.296Z,93.74
2023-01-12T22:35:22.703Z,95.00
2023-01-12T22:37:50.535Z,94.81
2023-01-12T22:40:19.903Z,95.51
2023-01-12T22:43:05.321Z,94.83
2023-01-12T22:45:35.541Z,94.78
2023-01-12T22:48:03.479Z,94.88
2023-01-12T22:50:31.270Z,94.60
2023-01-12T22:52:59.228Z,94.07
2023-01-12T22:55:28.646Z,93.77
2023-01-12T22:57:56.424Z,94.19
2023-01-12T23:00:24.577Z,93.61
2023-01-12T23:03:02.176Z,93.13
2023-01-12T23:05:33.535Z,93.31
2023-01-12T23:08:01.740Z,93.02
2023-01-12T23:10:31.173Z,92.78
2023-01-12T23:13:17.826Z,93.09
2023-01-12T23:15:50.753Z,92.10
2023-01-12T23:18:21.077Z,92.33
2023-01-12T23:20:50.325Z,93.12
2023-01-12T23:23:18.705Z,92.52
2023-01-12T23:25:48.904Z,91.96
2023-01-12T23:28:17.137Z,91.84
2023-01-12T23:30:45.004Z,91.47
2023-01-12T23:33:12.950Z,92.00
2023-01-12T23:35:42.773Z,91.40
2023-01-12T23:38:15.417Z,90.65
2023-01-12T23:40:43.354Z,90.43
2023-01-12T23:43:12.831Z,91.04
2023-01-12T23:45:40.765Z,91.27
2023-01-12T23:48:08.919Z,90.06
2023-01-12T23:50:36.906Z,90.07
2023-01-12T23:53:05.162Z,90.33
2023-01-12T23:55:33.064Z,90.17
2023-01-12T23:58:02.261Z,90.02
